Currituck — AEFR — position and weather

sailwx.info

Track history (hours):
 
Tides and Currents Weather Stations Pressure Air Temp Water Temp Dewpoint Dewpoint Depression Visibility Wind Speed Wind Dir Waves Ship Positions

Currituck

Last reported at 2017-Sep-29 06:01 UTC. Time now 2017-Oct-23 08:14 UTC.
Position N 38°52' W 076°26'.
Warning: this ship's position is 24 days out of date.

Length 45 m; draft 2 m.

Type: Dredging. MMSI: 369970446.

Date/timePositionNaut miles runAvg speedWind from/ knotsBaromVisibWave heightAir tempDewpointWater temp
2017-Sep-29 06:01N 38°52' W 076°26'0 6.3
2017-Sep-29 06:00N 38°52' W 076°26'4 7.1
2017-Sep-29 05:30N 38°55' W 076°25'4 7.2
2017-Sep-29 05:00N 38°58' W 076°23'3 6.9
2017-Sep-29 04:30N 39°02' W 076°23'28 6.9
2017-Sep-29 00:26N 39°25' W 076°02'4 9.5
2017-Sep-29 00:00N 39°28' W 075°58'5 9.6
2017-Sep-28 23:30N 39°31' W 075°53'4 7.5
2017-Sep-28 23:00N 39°32' W 075°49'0 0.0
2017-Sep-28 22:30N 39°32' W 075°49'0 0.0
2017-Sep-28 22:00N 39°32' W 075°49'0 0.0
2017-Sep-28 21:30N 39°32' W 075°49'0 0.0
2017-Sep-28 21:00N 39°32' W 075°49'0 0.0
2017-Sep-28 20:30N 39°32' W 075°49'1 2.8
2017-Sep-28 20:00N 39°32' W 075°47'3 6.8
2017-Sep-28 19:30N 39°33' W 075°43'3 6.5
2017-Sep-28 19:00N 39°33' W 075°38'3 6.4
2017-Sep-28 18:30N 39°34' W 075°34'3 6.2
2017-Sep-28 18:00N 39°31' W 075°33'4 7.3
2017-Sep-28 17:30N 39°27' W 075°33'3 6.8
2017-Sep-28 17:00N 39°24' W 075°30'3 6.4
2017-Sep-28 16:30N 39°22' W 075°27'3 6.3
2017-Sep-28 16:00N 39°19' W 075°24'3 6.0
2017-Sep-28 15:30N 39°17' W 075°22'3 6.5
2017-Sep-28 15:00N 39°15' W 075°19'  
2017-Sep-25 13:40N 38°58' W 074°58'0 1.0
2017-Sep-25 13:30N 38°58' W 074°58'1 1.4
2017-Sep-25 13:00N 38°57' W 074°58'1 1.3
2017-Sep-25 12:31N 38°58' W 074°58'0 0.2
2017-Sep-25 12:00N 38°58' W 074°58'1 1.2
2017-Sep-25 11:30N 38°58' W 074°58'1 1.1
2017-Sep-25 11:00N 38°58' W 074°58'0 0.1
2017-Sep-25 10:30N 38°58' W 074°58'0 0.8
2017-Sep-25 10:00N 38°58' W 074°57'0 0.0
2017-Sep-25 08:07N 38°58' W 074°57'0 0.1
2017-Sep-25 08:00N 38°58' W 074°57'0 0.0
2017-Sep-25 06:30N 38°58' W 074°57'0 0.0
2017-Sep-25 05:57N 38°58' W 074°57'0 0.0
2017-Sep-25 05:26N 38°58' W 074°57'0 0.0
2017-Sep-25 04:57N 38°58' W 074°57'0 0.0
2017-Sep-25 04:16N 38°58' W 074°57'0 0.0
2017-Sep-25 04:00N 38°58' W 074°57'0 0.0
2017-Sep-25 03:30N 38°58' W 074°57'0 0.0
2017-Sep-25 03:00N 38°58' W 074°57'0 0.0
2017-Sep-25 02:29N 38°58' W 074°57'0 0.0
2017-Sep-25 02:00N 38°58' W 074°57'0 0.0
2017-Sep-25 01:30N 38°58' W 074°57'0 0.0
2017-Sep-25 01:00N 38°58' W 074°57'0 0.0
2017-Sep-25 00:27N 38°58' W 074°57'0 0.0
2017-Sep-24 13:27N 38°58' W 074°58'1 2.3
2017-Sep-24 13:00N 38°57' W 074°58'1 1.8
2017-Sep-24 12:24N 38°58' W 074°58'1 3.0
2017-Sep-24 11:54N 38°57' W 074°59'1 3.2
2017-Sep-24 11:30N 38°58' W 074°58'0 0.6
2017-Sep-24 11:00N 38°58' W 074°58'0 0.1
2017-Sep-24 10:30N 38°58' W 074°58'0 0.1
2017-Sep-24 04:51N 38°58' W 074°57'0 0.0
2017-Sep-24 04:30N 38°58' W 074°57'  
Track history (hours):
 
Tides and Currents Weather Stations Pressure Air Temp Water Temp Dewpoint Dewpoint Depression Visibility Wind Speed Wind Dir Waves Ship Positions

Currituck

Last reported at 2017-Sep-29 06:01 UTC. Time now 2017-Oct-23 08:14 UTC.
Position N 38°52' W 076°26'.
Warning: this ship's position is 24 days out of date.

Length 45 m; draft 2 m.

Type: Dredging. MMSI: 369970446.

Date/timePositionNaut miles runAvg speedWind from/ knotsBaromVisibWave heightAir tempDewpointWater temp
2017-Sep-29 06:01N 38°52' W 076°26'0 6.3
2017-Sep-29 06:00N 38°52' W 076°26'4 7.1
2017-Sep-29 05:30N 38°55' W 076°25'4 7.2
2017-Sep-29 05:00N 38°58' W 076°23'3 6.9
2017-Sep-29 04:30N 39°02' W 076°23'28 6.9
2017-Sep-29 00:26N 39°25' W 076°02'4 9.5
2017-Sep-29 00:00N 39°28' W 075°58'5 9.6
2017-Sep-28 23:30N 39°31' W 075°53'4 7.5
2017-Sep-28 23:00N 39°32' W 075°49'0 0.0
2017-Sep-28 22:30N 39°32' W 075°49'0 0.0
2017-Sep-28 22:00N 39°32' W 075°49'0 0.0
2017-Sep-28 21:30N 39°32' W 075°49'0 0.0
2017-Sep-28 21:00N 39°32' W 075°49'0 0.0
2017-Sep-28 20:30N 39°32' W 075°49'1 2.8
2017-Sep-28 20:00N 39°32' W 075°47'3 6.8
2017-Sep-28 19:30N 39°33' W 075°43'3 6.5
2017-Sep-28 19:00N 39°33' W 075°38'3 6.4
2017-Sep-28 18:30N 39°34' W 075°34'3 6.2
2017-Sep-28 18:00N 39°31' W 075°33'4 7.3
2017-Sep-28 17:30N 39°27' W 075°33'3 6.8
2017-Sep-28 17:00N 39°24' W 075°30'3 6.4
2017-Sep-28 16:30N 39°22' W 075°27'3 6.3
2017-Sep-28 16:00N 39°19' W 075°24'3 6.0
2017-Sep-28 15:30N 39°17' W 075°22'3 6.5
2017-Sep-28 15:00N 39°15' W 075°19'  
2017-Sep-25 13:40N 38°58' W 074°58'0 1.0
2017-Sep-25 13:30N 38°58' W 074°58'1 1.4
2017-Sep-25 13:00N 38°57' W 074°58'1 1.3
2017-Sep-25 12:31N 38°58' W 074°58'0 0.2
2017-Sep-25 12:00N 38°58' W 074°58'1 1.2
2017-Sep-25 11:30N 38°58' W 074°58'1 1.1
2017-Sep-25 11:00N 38°58' W 074°58'0 0.1
2017-Sep-25 10:30N 38°58' W 074°58'0 0.8
2017-Sep-25 10:00N 38°58' W 074°57'0 0.0
2017-Sep-25 08:07N 38°58' W 074°57'0 0.1
2017-Sep-25 08:00N 38°58' W 074°57'0 0.0
2017-Sep-25 06:30N 38°58' W 074°57'0 0.0
2017-Sep-25 05:57N 38°58' W 074°57'0 0.0
2017-Sep-25 05:26N 38°58' W 074°57'0 0.0
2017-Sep-25 04:57N 38°58' W 074°57'0 0.0
2017-Sep-25 04:16N 38°58' W 074°57'0 0.0
2017-Sep-25 04:00N 38°58' W 074°57'0 0.0
2017-Sep-25 03:30N 38°58' W 074°57'0 0.0
2017-Sep-25 03:00N 38°58' W 074°57'0 0.0
2017-Sep-25 02:29N 38°58' W 074°57'0 0.0
2017-Sep-25 02:00N 38°58' W 074°57'0 0.0
2017-Sep-25 01:30N 38°58' W 074°57'0 0.0
2017-Sep-25 01:00N 38°58' W 074°57'0 0.0
2017-Sep-25 00:27N 38°58' W 074°57'0 0.0
2017-Sep-24 13:27N 38°58' W 074°58'1 2.3
2017-Sep-24 13:00N 38°57' W 074°58'1 1.8
2017-Sep-24 12:24N 38°58' W 074°58'1 3.0
2017-Sep-24 11:54N 38°57' W 074°59'1 3.2
2017-Sep-24 11:30N 38°58' W 074°58'0 0.6
2017-Sep-24 11:00N 38°58' W 074°58'0 0.1
2017-Sep-24 10:30N 38°58' W 074°58'0 0.1
2017-Sep-24 04:51N 38°58' W 074°57'0 0.0
2017-Sep-24 04:30N 38°58' W 074°57'  

Dump ship's entire track history